Time;durP1;ratioP1;P1;durP2;ratioP2;P2;SDS_P1;SDS_P2;PMS_P1;PMS_P2;Temp;Humidity;BMP_temperature;BMP_pressure;BME280_temperature;BME280_humidity;BME280_pressure;Samples;Min_cycle;Max_cycle;Signal;HPM_P1;HPM_P2
2022/09/02 08:04:37;;;;;;;7.40;1.40;;;25.90;58.70;;;;;;4953642;29;20482;-83
2022/09/02 08:07:04;;;;;;;3.53;1.47;;;25.80;58.10;;;;;;4939074;29;20526;-86
2022/09/02 08:09:30;;;;;;;5.03;1.30;;;25.80;57.80;;;;;;4939110;29;20464;-85
2022/09/02 08:11:57;;;;;;;2.80;1.60;;;25.70;57.50;;;;;;4938634;29;21033;-85
2022/09/02 08:14:27;;;;;;;5.77;1.30;;;25.70;57.40;;;;;;4939123;29;20538;-86
2022/09/02 08:16:55;;;;;;;2.63;1.40;;;25.60;57.50;;;;;;4939195;29;20447;-86
2022/09/02 08:19:23;;;;;;;2.80;1.20;;;25.60;57.60;;;;;;4938834;29;20457;-87
2022/09/02 08:21:52;;;;;;;2.80;1.20;;;25.70;57.70;;;;;;4938642;29;20479;-88
2022/09/02 08:24:19;;;;;;;2.17;1.13;;;25.80;57.80;;;;;;4937729;29;20562;-86
2022/09/02 08:26:45;;;;;;;2.50;1.57;;;25.90;57.80;;;;;;4937960;29;20523;-89
2022/09/02 08:29:12;;;;;;;5.20;2.03;;;25.80;57.80;;;;;;4938654;29;20474;-88
2022/09/02 08:31:39;;;;;;;2.20;0.97;;;25.90;57.90;;;;;;4938440;29;20538;-88
2022/09/02 08:34:06;;;;;;;1.83;1.00;;;25.90;58.10;;;;;;4937567;29;20493;-88
2022/09/02 08:36:33;;;;;;;4.33;1.30;;;25.90;58.20;;;;;;4936448;29;20507;-88
2022/09/02 08:39:03;;;;;;;2.30;1.10;;;25.90;58.20;;;;;;4936417;29;20475;-88
2022/09/02 08:41:36;;;;;;;2.50;1.60;;;26.00;58.30;;;;;;4936390;29;20451;-89
2022/09/02 08:44:05;;;;;;;1.10;1.00;;;26.00;58.30;;;;;;4936600;29;20585;-88
2022/09/02 08:46:34;;;;;;;1.20;1.00;;;26.00;58.40;;;;;;4936737;29;20926;-88
2022/09/02 08:49:07;;;;;;;1.00;0.90;;;26.00;58.30;;;;;;4936812;29;21076;-88
2022/09/02 08:51:37;;;;;;;1.43;0.90;;;26.00;58.30;;;;;;4936880;29;20812;-88
2022/09/02 08:54:08;;;;;;;1.43;1.33;;;26.00;58.30;;;;;;4938116;29;20467;-88
2022/09/02 08:56:35;;;;;;;1.27;0.90;;;26.10;58.40;;;;;;4938399;29;20438;-88
2022/09/02 08:59:03;;;;;;;1.53;1.07;;;26.10;58.40;;;;;;4938276;29;20491;-87
2022/09/02 09:01:41;;;;;;;3.00;1.10;;;26.10;58.50;;;;;;4937480;29;20534;-87
2022/09/02 09:04:17;;;;;;;1.90;1.07;;;26.10;58.40;;;;;;4938180;29;20911;-87
2022/09/02 09:06:59;;;;;;;1.63;0.97;;;26.10;58.50;;;;;;4937887;29;20565;-89
2022/09/02 09:09:35;;;;;;;1.10;1.00;;;26.10;58.50;;;;;;4937970;29;20522;-89
2022/09/02 09:12:09;;;;;;;1.00;0.90;;;26.10;58.50;;;;;;4937895;29;20541;-89
2022/09/02 09:14:47;;;;;;;1.10;1.00;;;26.10;58.60;;;;;;4937524;29;20453;-89
2022/09/02 09:17:25;;;;;;;1.30;1.20;;;26.10;58.60;;;;;;4937792;29;20478;-89
2022/09/02 09:19:53;;;;;;;1.50;1.13;;;26.20;58.70;;;;;;4937678;29;20479;-89
2022/09/02 09:22:25;;;;;;;1.10;0.90;;;26.20;58.70;;;;;;4936844;29;20462;-89
2022/09/02 09:24:56;;;;;;;1.20;0.90;;;26.20;58.60;;;;;;4937703;29;20526;-89
2022/09/02 09:27:23;;;;;;;1.27;0.90;;;26.20;59.20;;;;;;4937651;29;20443;-89
2022/09/02 09:29:51;;;;;;;0.90;0.80;;;26.20;58.60;;;;;;4937561;29;20530;-89
2022/09/02 09:32:26;;;;;;;1.93;1.10;;;26.20;58.60;;;;;;4937537;29;20511;-87
2022/09/02 09:35:00;;;;;;;1.87;1.03;;;26.20;58.70;;;;;;4937583;29;20447;-89
2022/09/02 09:37:36;;;;;;;2.03;1.00;;;26.20;58.70;;;;;;4937554;29;20511;-89
2022/09/02 09:40:22;;;;;;;1.10;0.93;;;26.20;58.70;;;;;;4937299;29;20473;-89
2022/09/02 09:42:54;;;;;;;1.10;0.80;;;26.20;58.70;;;;;;4937237;29;20447;-89
2022/09/02 09:45:26;;;;;;;0.80;0.80;;;26.20;58.80;;;;;;4937285;29;20444;-89
2022/09/02 09:48:17;;;;;;;1.00;0.90;;;26.20;58.80;;;;;;4937257;29;20447;-89
2022/09/02 09:50:45;;;;;;;1.13;1.00;;;26.30;59.40;;;;;;4937156;29;20813;-89
2022/09/02 09:53:17;;;;;;;1.20;1.10;;;26.20;58.90;;;;;;4937052;29;20555;-89
2022/09/02 09:55:54;;;;;;;1.20;0.90;;;26.20;58.80;;;;;;4937082;29;20447;-89
2022/09/02 09:58:22;;;;;;;1.10;1.00;;;26.30;58.90;;;;;;4937018;29;20450;-89
2022/09/02 10:00:59;;;;;;;1.30;1.07;;;26.20;59.40;;;;;;4936937;29;20458;-89
2022/09/02 10:03:28;;;;;;;1.00;0.80;;;26.30;58.90;;;;;;4936908;29;20490;-89
2022/09/02 10:05:57;;;;;;;1.10;1.00;;;26.30;58.90;;;;;;4936870;29;20902;-89
2022/09/02 10:08:26;;;;;;;2.13;0.97;;;26.30;58.90;;;;;;4936900;29;20977;-88
2022/09/02 10:11:00;;;;;;;0.97;0.87;;;26.30;58.90;;;;;;4936714;29;20526;-89
2022/09/02 10:13:30;;;;;;;1.10;0.90;;;26.30;58.90;;;;;;4935999;29;20451;-89
2022/09/02 10:16:25;;;;;;;2.07;0.93;;;26.30;59.00;;;;;;4936797;29;20542;-86
2022/09/02 10:18:55;;;;;;;1.43;1.00;;;26.40;58.90;;;;;;4936809;29;20498;-86
2022/09/02 10:21:34;;;;;;;1.30;1.00;;;26.30;59.00;;;;;;4936516;29;20450;-87
2022/09/02 10:24:10;;;;;;;1.00;0.90;;;26.30;59.10;;;;;;4936438;29;20553;-88
2022/09/02 10:26:43;;;;;;;1.00;0.90;;;26.30;59.00;;;;;;4936655;29;20534;-85
2022/09/02 10:29:38;;;;;;;1.00;0.90;;;26.40;59.10;;;;;;4936564;29;20443;-86
2022/09/02 10:32:26;;;;;;;1.40;1.27;;;26.40;59.10;;;;;;4934554;29;20845;-89
2022/09/02 10:35:07;;;;;;;1.20;1.10;;;26.40;59.10;;;;;;4936449;29;20447;-88
2022/09/02 10:37:40;;;;;;;1.10;0.90;;;26.30;59.20;;;;;;4936272;29;20447;-86
2022/09/02 10:40:12;;;;;;;1.77;1.10;;;26.30;59.20;;;;;;4936244;29;20467;-86
2022/09/02 10:42:58;;;;;;;2.20;1.10;;;26.30;59.30;;;;;;4936333;29;20451;-87
2022/09/02 10:45:34;;;;;;;1.73;1.00;;;26.40;59.40;;;;;;4936403;29;20454;-87
2022/09/02 10:48:19;;;;;;;1.93;1.00;;;26.40;59.40;;;;;;4936571;29;20998;-87
2022/09/02 10:50:52;;;;;;;1.77;0.93;;;26.40;59.40;;;;;;4936220;29;20543;-85
2022/09/02 10:53:36;;;;;;;2.30;0.83;;;26.30;60.00;;;;;;4936113;29;20815;-86
2022/09/02 10:56:08;;;;;;;1.20;1.00;;;26.40;59.50;;;;;;4940484;29;20445;-86
2022/09/02 10:58:45;;;;;;;2.23;1.00;;;26.30;59.50;;;;;;4940194;29;20470;-86
2022/09/02 11:01:18;;;;;;;2.30;1.00;;;26.30;59.50;;;;;;4943504;29;20802;-85
2022/09/02 11:04:07;;;;;;;1.70;1.10;;;26.30;59.50;;;;;;4941496;29;20486;-86
2022/09/02 11:06:40;;;;;;;1.30;1.20;;;26.30;59.50;;;;;;4938730;29;20471;-86
2022/09/02 11:09:13;;;;;;;1.97;1.00;;;26.30;59.50;;;;;;4940302;29;20462;-88
2022/09/02 11:11:45;;;;;;;5.40;1.10;;;26.30;59.60;;;;;;4936064;29;20439;-87
2022/09/02 11:14:22;;;;;;;0.90;0.80;;;26.30;59.50;;;;;;4937380;29;20531;-88
2022/09/02 11:16:52;;;;;;;1.20;0.90;;;26.30;59.50;;;;;;4957905;29;20431;-87
2022/09/02 11:19:25;;;;;;;1.17;1.00;;;26.30;59.50;;;;;;4956802;29;20487;-87
2022/09/02 11:21:58;;;;;;;1.20;1.07;;;26.30;59.60;;;;;;4953305;29;20486;-86
2022/09/02 11:24:32;;;;;;;1.10;0.90;;;26.40;59.70;;;;;;4937630;29;20550;-87
2022/09/02 11:27:05;;;;;;;3.47;1.10;;;26.40;59.60;;;;;;4939925;29;20447;-87
2022/09/02 11:29:40;;;;;;;1.47;1.20;;;26.40;59.70;;;;;;4939866;29;20537;-86
2022/09/02 11:32:15;;;;;;;2.07;1.03;;;26.30;59.60;;;;;;4939827;29;20497;-87
2022/09/02 11:34:45;;;;;;;1.67;0.93;;;26.40;59.70;;;;;;4939668;29;20873;-87
2022/09/02 11:37:28;;;;;;;1.30;1.20;;;26.40;59.70;;;;;;4939721;29;20451;-88
2022/09/02 11:40:00;;;;;;;1.40;1.10;;;26.40;59.70;;;;;;4939800;29;20457;-87
2022/09/02 11:42:40;;;;;;;1.63;1.27;;;26.40;59.70;;;;;;4939706;29;20483;-87
2022/09/02 11:45:28;;;;;;;1.57;1.10;;;26.40;59.70;;;;;;4939426;29;20487;-88
2022/09/02 11:48:35;;;;;;;1.90;1.40;;;26.40;59.70;;;;;;4939551;29;20457;-88
2022/09/02 11:51:30;;;;;;;1.50;1.10;;;26.40;59.60;;;;;;4939549;29;20797;-87
2022/09/02 11:54:00;;;;;;;1.17;1.07;;;26.40;59.70;;;;;;4939186;29;20545;-88
2022/09/02 11:56:30;;;;;;;1.47;1.00;;;26.30;59.70;;;;;;4939262;29;20478;-87
2022/09/02 11:58:57;;;;;;;2.10;1.07;;;26.40;59.80;;;;;;4939354;29;20821;-88
2022/09/02 12:01:30;;;;;;;1.50;1.10;;;26.40;59.70;;;;;;4939328;29;20461;-87
2022/09/02 12:04:02;;;;;;;2.07;1.07;;;26.40;59.70;;;;;;4939066;29;20561;-88
2022/09/02 12:06:29;;;;;;;1.90;1.00;;;26.40;60.40;;;;;;4939248;29;20534;-88
2022/09/02 12:09:02;;;;;;;1.00;0.90;;;26.40;59.70;;;;;;4939113;29;20451;-87
2022/09/02 12:11:48;;;;;;;1.17;1.00;;;26.40;59.70;;;;;;4939044;29;20446;-87
2022/09/02 12:14:54;;;;;;;2.00;0.90;;;26.40;59.70;;;;;;4939123;29;20883;-87
2022/09/02 12:17:37;;;;;;;1.10;0.90;;;26.40;59.70;;;;;;4899106;29;20469;-88
2022/09/02 12:20:06;;;;;;;2.20;0.90;;;26.40;59.80;;;;;;4939094;29;20923;-88
2022/09/02 12:22:37;;;;;;;3.90;1.00;;;26.30;59.70;;;;;;4938606;29;20983;-88
2022/09/02 12:25:20;;;;;;;1.93;1.03;;;26.40;59.70;;;;;;4938816;29;20505;-88
2022/09/02 12:27:49;;;;;;;1.03;0.93;;;26.40;59.70;;;;;;4926674;29;20494;-89
2022/09/02 12:30:54;;;;;;;1.30;0.90;;;26.40;59.70;;;;;;4938741;29;20447;-88
2022/09/02 12:33:32;;;;;;;1.00;0.90;;;26.40;59.70;;;;;;4938828;29;20478;-89
2022/09/02 12:35:59;;;;;;;1.13;0.90;;;26.40;59.70;;;;;;4937741;29;20443;-89
2022/09/02 12:38:34;;;;;;;0.90;0.80;;;26.30;59.70;;;;;;4938492;29;20804;-89
2022/09/02 12:41:29;;;;;;;1.73;0.97;;;26.40;59.80;;;;;;4938450;29;20450;-89
2022/09/02 12:44:32;;;;;;;0.90;0.83;;;26.40;59.70;;;;;;4938312;29;20479;-89
2022/09/02 12:47:06;;;;;;;0.90;0.90;;;26.40;59.70;;;;;;4842676;29;20479;-89
2022/09/02 12:49:52;;;;;;;1.00;0.80;;;26.40;59.70;;;;;;4842783;29;20447;-89
2022/09/02 12:52:46;;;;;;;1.30;1.07;;;26.40;59.70;;;;;;4903201;29;20487;-89
2022/09/02 12:55:20;;;;;;;1.40;1.00;;;26.40;59.70;;;;;;4938177;29;20475;-89
2022/09/02 12:57:50;;;;;;;1.03;0.93;;;26.40;59.80;;;;;;4938266;29;20535;-89
2022/09/02 13:00:27;;;;;;;1.17;1.07;;;26.40;59.90;;;;;;4938116;29;20451;-89
2022/09/02 13:03:07;;;;;;;1.10;1.00;;;26.40;59.70;;;;;;4937888;29;20441;-89
2022/09/02 13:05:49;;;;;;;1.00;0.93;;;26.40;59.70;;;;;;4937813;29;20636;-89
2022/09/02 13:08:49;;;;;;;1.10;1.00;;;26.40;59.70;;;;;;4937971;29;20486;-89
2022/09/02 13:11:56;;;;;;;1.03;0.93;;;26.40;59.70;;;;;;4937977;29;20522;-89
2022/09/02 13:14:54;;;;;;;1.60;1.03;;;26.40;59.70;;;;;;4937919;29;20939;-89
2022/09/02 13:17:28;;;;;;;1.00;0.80;;;26.40;59.70;;;;;;4937010;29;20465;-89
2022/09/02 13:20:19;;;;;;;1.07;0.97;;;26.40;59.80;;;;;;4937077;29;20800;-89
2022/09/02 13:23:05;;;;;;;1.97;0.80;;;26.50;59.80;;;;;;4901295;29;20879;-88
2022/09/02 13:26:04;;;;;;;1.00;0.90;;;26.40;59.30;;;;;;4937993;29;20506;-88
2022/09/02 13:29:07;;;;;;;1.20;1.00;;;26.40;59.10;;;;;;4898306;29;20843;-92
2022/09/02 13:31:35;;;;;;;0.80;0.80;;;26.40;59.00;;;;;;4937409;29;20938;-88
2022/09/02 13:34:04;;;;;;;2.40;0.90;;;26.30;58.90;;;;;;4937436;29;20443;-88
2022/09/02 13:36:35;;;;;;;1.93;0.90;;;26.40;58.90;;;;;;4937470;29;20486;-88
2022/09/02 13:39:16;;;;;;;1.00;0.90;;;26.40;59.00;;;;;;4937545;29;20881;-88
2022/09/02 13:41:43;;;;;;;1.57;1.10;;;26.40;59.00;;;;;;4937376;29;20473;-91
2022/09/02 13:44:12;;;;;;;0.90;0.80;;;26.40;58.90;;;;;;4937202;29;20931;-87
2022/09/02 13:46:50;;;;;;;2.37;0.97;;;26.40;58.90;;;;;;4937080;29;20506;-91
2022/09/02 13:49:26;;;;;;;0.90;0.80;;;26.40;58.80;;;;;;4937254;29;20522;-89
2022/09/02 13:51:54;;;;;;;1.37;1.00;;;26.40;58.80;;;;;;4937084;29;20464;-89
2022/09/02 13:54:31;;;;;;;1.70;0.80;;;26.40;58.80;;;;;;4937178;29;20478;-88
2022/09/02 13:57:00;;;;;;;1.97;0.90;;;26.40;58.80;;;;;;4937146;29;20447;-92
2022/09/02 13:59:38;;;;;;;1.53;0.80;;;26.40;58.70;;;;;;4937044;29;20530;-88
2022/09/02 14:02:24;;;;;;;1.50;0.90;;;26.40;58.70;;;;;;4937092;29;20478;-88
2022/09/02 14:04:55;;;;;;;1.17;0.80;;;26.40;58.70;;;;;;4936567;29;20498;-88
2022/09/02 14:07:28;;;;;;;1.10;1.00;;;26.40;58.70;;;;;;4936981;29;20489;-89
2022/09/02 14:09:58;;;;;;;1.20;1.00;;;26.40;58.70;;;;;;4936786;29;20447;-88
2022/09/02 14:12:27;;;;;;;0.93;0.87;;;26.40;58.70;;;;;;4936755;29;20537;-89
2022/09/02 14:14:55;;;;;;;0.80;0.80;;;26.40;58.70;;;;;;4936929;29;20479;-92
2022/09/02 14:17:23;;;;;;;1.37;1.10;;;26.40;58.70;;;;;;4937165;29;20838;-89
2022/09/02 14:19:51;;;;;;;1.00;0.90;;;26.40;58.70;;;;;;4936705;29;20522;-91
2022/09/02 14:22:23;;;;;;;1.00;0.90;;;26.40;58.60;;;;;;4936473;29;20550;-89
2022/09/02 14:24:51;;;;;;;2.90;1.10;;;26.40;58.50;;;;;;4936453;29;20541;-88
2022/09/02 14:27:21;;;;;;;0.80;0.80;;;26.40;58.50;;;;;;4936569;29;20486;-89
2022/09/02 14:29:52;;;;;;;1.00;0.90;;;26.40;58.60;;;;;;4936425;29;20447;-89
2022/09/02 14:32:22;;;;;;;1.07;0.80;;;26.40;58.50;;;;;;4936692;29;20535;-92
2022/09/02 14:35:07;;;;;;;1.00;0.90;;;26.40;58.50;;;;;;4936646;29;20482;-92
2022/09/02 14:37:46;;;;;;;3.20;1.10;;;26.40;58.50;;;;;;4936413;29;20522;-88
2022/09/02 14:40:13;;;;;;;1.00;0.90;;;26.40;58.40;;;;;;4936518;29;20448;-89
2022/09/02 14:42:47;;;;;;;0.83;0.70;;;26.40;58.40;;;;;;4936402;29;20549;-88
2022/09/02 14:45:23;;;;;;;1.00;0.80;;;26.40;58.40;;;;;;4936363;29;20487;-89
2022/09/02 14:47:50;;;;;;;1.00;0.90;;;26.40;58.50;;;;;;4936400;29;20530;-88
2022/09/02 14:50:20;;;;;;;1.00;0.90;;;26.40;58.40;;;;;;4936260;29;20475;-89
2022/09/02 14:52:50;;;;;;;1.20;0.90;;;26.40;58.50;;;;;;4936173;29;20887;-88
2022/09/02 14:55:49;;;;;;;0.93;0.83;;;26.40;58.50;;;;;;4936144;29;20482;-89
2022/09/02 14:58:18;;;;;;;1.00;0.90;;;26.40;58.40;;;;;;4935899;29;20510;-88
2022/09/02 15:00:47;;;;;;;1.20;1.10;;;26.40;58.90;;;;;;4936596;29;20456;-89
2022/09/02 15:03:16;;;;;;;1.00;0.90;;;26.40;58.40;;;;;;4935976;29;20942;-89
2022/09/02 15:05:43;;;;;;;1.03;0.93;;;26.40;58.40;;;;;;4935695;29;20593;-88
2022/09/02 15:08:10;;;;;;;1.03;0.80;;;26.40;58.50;;;;;;4936089;29;20502;-88
2022/09/02 15:10:38;;;;;;;1.30;0.80;;;26.40;58.50;;;;;;4936077;29;20483;-91
2022/09/02 15:13:05;;;;;;;1.27;0.90;;;26.40;58.40;;;;;;4936142;29;20451;-91
2022/09/02 15:15:34;;;;;;;1.13;0.90;;;26.40;58.90;;;;;;4934145;29;20455;-87
2022/09/02 15:18:01;;;;;;;1.20;1.00;;;26.40;59.00;;;;;;4935895;29;20461;-87
2022/09/02 15:20:28;;;;;;;1.17;1.07;;;26.50;59.30;;;;;;4936311;29;20853;-87
2022/09/02 15:22:55;;;;;;;1.23;1.13;;;26.40;59.40;;;;;;4936125;29;20554;-87
2022/09/02 15:25:22;;;;;;;1.17;0.90;;;26.40;59.50;;;;;;4935970;29;20497;-87
2022/09/02 15:27:49;;;;;;;1.10;1.00;;;26.50;59.60;;;;;;4936036;29;20486;-87
2022/09/02 15:30:16;;;;;;;1.43;1.03;;;26.50;59.60;;;;;;4935461;29;20998;-87
2022/09/02 15:32:45;;;;;;;3.20;1.20;;;26.50;59.60;;;;;;4935558;29;20538;-87
2022/09/02 15:35:12;;;;;;;1.63;1.10;;;26.50;59.70;;;;;;4935574;29;20486;-87
2022/09/02 15:37:39;;;;;;;1.50;1.10;;;26.50;59.70;;;;;;4935340;29;20487;-87
2022/09/02 15:40:07;;;;;;;2.30;1.00;;;26.50;59.70;;;;;;4935405;29;20447;-87
2022/09/02 15:42:35;;;;;;;1.90;1.00;;;26.50;59.70;;;;;;4935502;29;20447;-88
2022/09/02 15:45:05;;;;;;;1.43;1.00;;;26.50;59.70;;;;;;4936643;29;20924;-88
2022/09/02 15:47:35;;;;;;;2.03;0.90;;;26.50;59.80;;;;;;4936160;29;20526;-87
2022/09/02 15:50:04;;;;;;;3.00;1.03;;;26.50;59.70;;;;;;4935952;29;20930;-87
2022/09/02 15:52:30;;;;;;;1.27;1.00;;;26.50;59.60;;;;;;4935108;29;20546;-87
2022/09/02 15:54:58;;;;;;;1.30;0.90;;;26.50;59.50;;;;;;4935965;29;20542;-87
2022/09/02 15:57:25;;;;;;;1.70;1.00;;;26.50;59.60;;;;;;4935791;29;20798;-86
2022/09/02 15:59:52;;;;;;;0.97;0.80;;;26.50;59.50;;;;;;4935770;29;20545;-87
2022/09/02 16:02:18;;;;;;;2.90;1.40;;;26.50;59.60;;;;;;4935627;29;21417;-87
2022/09/02 16:04:45;;;;;;;1.93;1.07;;;26.50;59.50;;;;;;4935345;29;21065;-87
2022/09/02 16:07:14;;;;;;;1.07;0.97;;;26.50;59.50;;;;;;4935912;29;20463;-87
2022/09/02 16:09:41;;;;;;;1.53;1.10;;;26.50;59.60;;;;;;4935693;29;20455;-85
2022/09/02 16:12:08;;;;;;;1.93;1.00;;;26.50;59.60;;;;;;4920850;29;20471;-85
2022/09/02 16:14:35;;;;;;;1.10;1.00;;;26.50;59.30;;;;;;4919057;29;20483;-85
2022/09/02 16:17:02;;;;;;;1.00;0.90;;;26.50;59.30;;;;;;4919762;29;20491;-86
2022/09/02 16:19:29;;;;;;;1.90;1.13;;;26.50;59.50;;;;;;4920153;29;20827;-87
2022/09/02 16:21:56;;;;;;;3.60;1.40;;;26.50;59.50;;;;;;4919891;29;20571;-87
2022/09/02 16:24:24;;;;;;;2.27;1.20;;;26.50;59.50;;;;;;4920185;29;20451;-88
2022/09/02 16:26:51;;;;;;;1.53;1.43;;;26.50;58.80;;;;;;4920200;29;20523;-88
2022/09/02 16:29:19;;;;;;;2.10;1.20;;;26.50;58.60;;;;;;4919681;29;20499;-88
2022/09/02 16:31:49;;;;;;;1.50;1.40;;;26.40;58.40;;;;;;4919777;29;20935;-88
2022/09/02 16:34:18;;;;;;;1.20;0.90;;;26.50;58.50;;;;;;4919847;29;20452;-88
2022/09/02 16:36:48;;;;;;;1.10;1.00;;;26.50;58.50;;;;;;4919927;29;20479;-88
2022/09/02 16:39:15;;;;;;;2.37;1.20;;;26.50;58.40;;;;;;4919993;29;20547;-88
2022/09/02 16:41:45;;;;;;;5.03;1.20;;;26.40;58.30;;;;;;4919787;29;20459;-88
2022/09/02 16:44:15;;;;;;;2.23;0.97;;;26.50;58.40;;;;;;4919707;29;20471;-88
2022/09/02 16:46:42;;;;;;;1.40;1.20;;;26.50;58.40;;;;;;4919376;29;20579;-88
2022/09/02 16:49:11;;;;;;;2.43;1.40;;;26.50;58.30;;;;;;4919674;29;20448;-88
2022/09/02 16:51:39;;;;;;;3.73;1.03;;;26.50;58.20;;;;;;4919485;29;20508;-88
2022/09/02 16:54:08;;;;;;;2.07;1.50;;;26.40;58.20;;;;;;4919657;29;20444;-88
2022/09/02 16:56:36;;;;;;;4.20;1.00;;;26.50;58.20;;;;;;4919250;29;20488;-88
2022/09/02 16:59:06;;;;;;;1.80;1.40;;;26.50;58.20;;;;;;4919495;29;20455;-90
2022/09/02 17:01:34;;;;;;;1.40;1.30;;;26.40;58.10;;;;;;4919130;29;20538;-87
2022/09/02 17:04:01;;;;;;;4.53;1.30;;;26.50;58.60;;;;;;4919129;29;20535;-90
2022/09/02 17:06:29;;;;;;;2.17;1.20;;;26.50;58.40;;;;;;4935458;29;20537;-87
2022/09/02 17:08:56;;;;;;;1.37;1.13;;;26.40;58.30;;;;;;4938072;29;20451;-87
2022/09/02 17:11:25;;;;;;;2.47;1.20;;;26.50;58.30;;;;;;4937709;29;20447;-86
2022/09/02 17:13:55;;;;;;;1.80;1.20;;;26.50;58.30;;;;;;4938058;29;20533;-85
2022/09/02 17:16:25;;;;;;;5.27;1.50;;;26.50;58.50;;;;;;4938009;29;20455;-86
2022/09/02 17:18:52;;;;;;;4.10;1.17;;;26.50;58.40;;;;;;4937640;29;20550;-86
2022/09/02 17:21:23;;;;;;;1.90;1.30;;;26.40;58.30;;;;;;4937134;29;20612;-88
2022/09/02 17:23:51;;;;;;;1.60;1.40;;;26.50;58.70;;;;;;4937973;29;20499;-88
2022/09/02 17:26:19;;;;;;;1.27;1.10;;;26.50;58.50;;;;;;4936880;29;20494;-84
2022/09/02 17:28:49;;;;;;;2.57;1.10;;;26.50;58.70;;;;;;4936243;29;20850;-84
2022/09/02 17:31:22;;;;;;;2.17;1.07;;;26.50;58.80;;;;;;4936066;29;20942;-83
2022/09/02 17:33:51;;;;;;;1.43;1.30;;;26.50;58.80;;;;;;4936130;29;20530;-84
2022/09/02 17:36:18;;;;;;;3.43;1.30;;;26.40;58.70;;;;;;4936541;29;20962;-84
2022/09/02 17:38:45;;;;;;;2.37;1.37;;;26.40;58.70;;;;;;4937088;29;20450;-84
2022/09/02 17:43:56;;;;;;;2.00;1.20;;;26.40;59.20;;;;;;4937556;29;20482;-84
2022/09/02 17:46:24;;;;;;;4.40;1.10;;;26.40;58.60;;;;;;4937439;29;20502;-84
2022/09/02 17:48:52;;;;;;;2.77;1.03;;;26.40;58.60;;;;;;4937509;29;20451;-84
2022/09/02 17:51:19;;;;;;;4.07;1.17;;;26.40;58.60;;;;;;4937236;29;20797;-85
2022/09/02 17:53:46;;;;;;;1.43;1.33;;;26.40;58.40;;;;;;4937474;29;20547;-85
2022/09/02 17:56:41;;;;;;;3.63;1.47;;;26.40;58.20;;;;;;4937365;29;20538;-85
2022/09/02 17:59:18;;;;;;;1.93;1.20;;;26.40;58.20;;;;;;4931064;29;20474;-85
2022/09/02 18:01:58;;;;;;;2.60;1.60;;;26.40;58.10;;;;;;4937286;29;20450;-85
2022/09/02 18:04:38;;;;;;;1.40;1.30;;;26.40;58.00;;;;;;4937248;29;20447;-85
2022/09/02 18:07:14;;;;;;;5.63;1.97;;;26.30;57.80;;;;;;4936900;29;20582;-85
2022/09/02 18:09:41;;;;;;;2.10;1.40;;;26.30;57.70;;;;;;4937360;29;20488;-87
2022/09/02 18:12:08;;;;;;;1.60;1.37;;;26.30;57.70;;;;;;4937014;29;20479;-85
2022/09/02 18:14:39;;;;;;;2.80;1.40;;;26.30;57.50;;;;;;4936838;29;20530;-92
2022/09/02 18:17:15;;;;;;;3.33;1.57;;;26.40;57.60;;;;;;4936995;29;20443;-85
2022/09/02 18:19:56;;;;;;;3.37;1.50;;;26.30;57.40;;;;;;4937131;29;20454;-87
2022/09/02 18:22:49;;;;;;;4.70;2.27;;;26.30;57.20;;;;;;4936698;29;20495;-86
2022/09/02 18:25:28;;;;;;;3.03;1.47;;;26.30;57.00;;;;;;4936964;29;20451;-85
2022/09/02 18:28:06;;;;;;;4.73;1.50;;;26.20;56.70;;;;;;4936833;29;20474;-85
2022/09/02 18:30:41;;;;;;;3.30;1.83;;;26.20;57.40;;;;;;4936592;29;20442;-85
2022/09/02 18:33:37;;;;;;;4.07;1.57;;;26.20;56.40;;;;;;4935919;29;20447;-83
2022/09/02 18:36:15;;;;;;;2.27;1.50;;;26.10;56.20;;;;;;4919534;29;20446;-92
2022/09/02 18:38:51;;;;;;;3.47;1.60;;;26.10;55.80;;;;;;4936425;29;20483;-84
2022/09/02 18:41:33;;;;;;;2.57;1.60;;;26.10;55.80;;;;;;4936570;29;20525;-85
2022/09/02 18:44:12;;;;;;;6.83;1.57;;;26.10;55.70;;;;;;4936725;29;20451;-84
2022/09/02 18:46:45;;;;;;;1.70;1.60;;;26.10;55.50;;;;;;4936508;29;20494;-92
2022/09/02 18:49:14;;;;;;;2.40;2.20;;;26.00;55.10;;;;;;4936768;29;20447;-84
2022/09/02 18:51:44;;;;;;;2.10;1.90;;;26.00;55.10;;;;;;4935993;29;20478;-85
2022/09/02 18:54:15;;;;;;;4.77;2.20;;;25.90;55.00;;;;;;4936502;29;20538;-85
2022/09/02 18:56:49;;;;;;;4.60;2.30;;;25.90;55.60;;;;;;4936244;29;20455;-85
2022/09/02 18:59:22;;;;;;;2.17;1.97;;;25.80;55.40;;;;;;4936170;29;20966;-86
2022/09/02 19:01:55;;;;;;;2.60;2.00;;;25.80;55.40;;;;;;4937217;29;20482;-84
2022/09/02 19:04:24;;;;;;;2.20;2.00;;;25.70;55.30;;;;;;4936523;29;20478;-85
2022/09/02 19:08:28;;;;;;;4.53;2.20;;;25.70;55.50;;;;;;4936315;29;20574;-85
2022/09/02 19:09:40;;;;;;;2.37;2.17;;;25.70;55.50;;;;;;4936323;29;20450;-86
2022/09/02 19:12:09;;;;;;;2.70;2.40;;;25.70;55.60;;;;;;4935964;29;20533;-86
2022/09/02 19:14:37;;;;;;;2.93;2.00;;;25.70;55.70;;;;;;4936084;29;20459;-86
2022/09/02 19:17:04;;;;;;;3.53;2.20;;;25.80;55.90;;;;;;4936180;29;20542;-86
2022/09/02 19:19:34;;;;;;;2.30;2.10;;;25.80;56.20;;;;;;4935765;29;20494;-88
2022/09/02 19:22:05;;;;;;;2.60;2.40;;;25.70;56.20;;;;;;4935663;29;20833;-86
2022/09/02 19:24:38;;;;;;;5.57;2.20;;;25.70;56.20;;;;;;4935959;29;20461;-87
2022/09/02 19:27:08;;;;;;;2.50;2.30;;;25.70;56.40;;;;;;4935721;29;20589;-86
2022/09/02 19:29:40;;;;;;;2.63;2.13;;;25.70;56.30;;;;;;4935788;29;20546;-87
2022/09/02 19:32:07;;;;;;;3.13;2.30;;;25.70;56.30;;;;;;4935447;29;20490;-86
2022/09/02 19:34:37;;;;;;;3.97;2.47;;;25.70;56.20;;;;;;4936182;29;20451;-86
2022/09/02 19:37:06;;;;;;;4.70;2.20;;;25.70;56.20;;;;;;4936213;29;20449;-86
2022/09/02 19:39:34;;;;;;;4.30;2.10;;;25.70;56.20;;;;;;4935858;29;20530;-86
2022/09/02 19:42:01;;;;;;;2.23;1.87;;;25.60;56.30;;;;;;4935779;29;20534;-86
2022/09/02 19:44:28;;;;;;;1.70;1.57;;;25.60;56.20;;;;;;4936063;29;20453;-86
2022/09/02 19:46:56;;;;;;;2.17;2.07;;;25.70;56.30;;;;;;4939535;29;20528;-87
2022/09/02 19:49:23;;;;;;;1.83;1.70;;;25.60;56.40;;;;;;4939702;29;20501;-86
2022/09/02 19:51:51;;;;;;;3.43;1.90;;;25.60;56.50;;;;;;4939267;29;20534;-87
2022/09/02 19:54:19;;;;;;;12.17;2.67;;;25.70;56.50;;;;;;4939601;29;20447;-86
2022/09/02 19:56:46;;;;;;;2.60;1.80;;;25.80;56.40;;;;;;4939398;29;20443;-86
2022/09/02 19:59:13;;;;;;;6.90;1.90;;;25.90;56.40;;;;;;4939630;29;20538;-86
2022/09/02 20:01:40;;;;;;;3.03;1.60;;;26.00;56.60;;;;;;4939383;29;20451;-86
2022/09/02 20:04:07;;;;;;;2.37;1.67;;;26.00;56.50;;;;;;4939212;29;20443;-87
2022/09/02 20:06:34;;;;;;;2.17;1.63;;;26.10;56.60;;;;;;4939283;29;20585;-88
2022/09/02 20:09:01;;;;;;;1.80;1.70;;;26.10;56.60;;;;;;4939549;29;20451;-88
2022/09/02 20:11:29;;;;;;;2.60;1.60;;;26.10;56.70;;;;;;4939128;29;20550;-89
2022/09/02 20:13:57;;;;;;;2.47;2.07;;;26.10;56.80;;;;;;4939484;29;20451;-89
2022/09/02 20:16:27;;;;;;;1.90;1.47;;;26.10;56.80;;;;;;4939426;29;20451;-87
2022/09/02 20:18:55;;;;;;;5.70;1.47;;;26.20;57.00;;;;;;4939120;29;20461;-87
2022/09/02 20:21:25;;;;;;;3.73;1.80;;;26.20;57.00;;;;;;4939118;29;20475;-86
2022/09/02 20:23:53;;;;;;;1.90;1.70;;;26.20;57.10;;;;;;4939181;29;20453;-86
2022/09/02 20:26:33;;;;;;;2.77;1.40;;;26.20;57.20;;;;;;4938826;29;20479;-87
2022/09/02 20:29:24;;;;;;;2.70;1.57;;;26.20;57.20;;;;;;4938986;29;20438;-87
2022/09/02 20:32:10;;;;;;;3.80;1.50;;;26.30;57.20;;;;;;4939113;29;20475;-87
2022/09/02 20:34:53;;;;;;;2.97;1.80;;;26.30;57.20;;;;;;4939130;29;20576;-86
2022/09/02 20:37:32;;;;;;;3.93;1.23;;;26.30;57.40;;;;;;4939181;29;20542;-87
2022/09/02 20:40:21;;;;;;;1.93;1.67;;;26.30;57.40;;;;;;4939095;29;20443;-87
2022/09/02 20:43:32;;;;;;;6.67;2.50;;;26.30;57.50;;;;;;4938861;29;20443;-88
2022/09/02 20:46:05;;;;;;;1.37;1.27;;;26.30;57.50;;;;;;4902522;29;20463;-87
2022/09/02 20:48:47;;;;;;;4.23;1.27;;;26.30;57.60;;;;;;4938728;29;21032;-89
2022/09/02 20:51:22;;;;;;;1.60;1.50;;;26.30;57.50;;;;;;4938612;29;20565;-85
2022/09/02 20:54:05;;;;;;;5.60;1.40;;;26.30;57.60;;;;;;4938327;29;21013;-89
2022/09/02 20:56:43;;;;;;;2.73;1.53;;;26.30;57.50;;;;;;4937586;29;20506;-88
2022/09/02 20:59:20;;;;;;;1.40;1.30;;;26.30;57.60;;;;;;4938491;29;20559;-85
2022/09/02 21:01:48;;;;;;;3.00;1.70;;;26.30;57.70;;;;;;4938278;29;20530;-86
2022/09/02 21:04:29;;;;;;;2.20;1.30;;;26.30;57.80;;;;;;4938684;29;20535;-85
2022/09/02 21:07:01;;;;;;;4.50;1.37;;;26.40;57.90;;;;;;4938432;29;20561;-87
2022/09/02 21:09:36;;;;;;;4.40;1.37;;;26.30;57.90;;;;;;4938479;29;20946;-87
2022/09/02 21:12:12;;;;;;;2.83;1.50;;;26.30;57.70;;;;;;4937881;29;20491;-88
2022/09/02 21:14:45;;;;;;;5.37;1.70;;;26.40;58.60;;;;;;4938728;29;20495;-86
2022/09/02 21:17:19;;;;;;;1.87;1.77;;;26.40;58.00;;;;;;4938477;29;20451;-85
2022/09/02 21:19:54;;;;;;;3.47;1.60;;;26.40;58.00;;;;;;4938054;29;20524;-86
2022/09/02 21:22:26;;;;;;;2.00;1.30;;;26.40;57.90;;;;;;4938254;29;20549;-85
2022/09/02 21:24:56;;;;;;;1.73;1.63;;;26.40;57.80;;;;;;4937790;29;20447;-85
2022/09/02 21:27:27;;;;;;;3.90;1.53;;;26.40;57.90;;;;;;4938705;29;20498;-85